Time;durP1;ratioP1;P1;durP2;ratioP2;P2;SDS_P1;SDS_P2;PMS_P1;PMS_P2;Temp;Humidity;BMP_temperature;BMP_pressure;BME280_temperature;BME280_humidity;BME280_pressure;Samples;Min_cycle;Max_cycle;Signal;HPM_P1;HPM_P2
2022/12/10 00:01:17;;;;;;;6.57;1.60;;;22.50;71.70;;;;;;5070842;28;20389;-81
2022/12/10 00:03:45;;;;;;;7.20;1.50;;;22.50;71.00;;;;;;5070751;28;20386;-82
2022/12/10 00:06:14;;;;;;;5.15;1.48;;;22.40;70.40;;;;;;5070539;28;20374;-83
2022/12/10 00:08:41;;;;;;;6.68;1.77;;;22.10;71.70;;;;;;5070611;28;20371;-82
2022/12/10 00:11:11;;;;;;;5.22;1.70;;;22.20;71.90;;;;;;5071111;28;20462;-83
2022/12/10 00:13:39;;;;;;;5.88;1.65;;;22.40;71.70;;;;;;5070908;28;20457;-82
2022/12/10 00:16:10;;;;;;;6.72;1.60;;;22.70;70.90;;;;;;5070535;28;20370;-82
2022/12/10 00:18:37;;;;;;;7.05;1.75;;;23.10;70.80;;;;;;5070644;28;20406;-83
2022/12/10 00:21:13;;;;;;;4.80;1.60;;;23.80;70.90;;;;;;5070390;28;20454;-84
2022/12/10 00:23:40;;;;;;;4.57;1.85;;;24.30;66.60;;;;;;5070483;28;20458;-84
2022/12/10 00:26:10;;;;;;;6.10;2.00;;;24.50;67.50;;;;;;5070352;28;20564;-83
2022/12/10 00:28:38;;;;;;;6.00;1.85;;;24.90;67.10;;;;;;5070190;28;20406;-84
2022/12/10 00:31:09;;;;;;;4.83;2.03;;;25.40;65.20;;;;;;5070269;28;20370;-84
2022/12/10 00:33:36;;;;;;;5.97;2.00;;;25.10;64.10;;;;;;5067862;28;20445;-83
2022/12/10 00:36:09;;;;;;;5.60;1.80;;;24.50;65.00;;;;;;5069890;28;20370;-83
2022/12/10 00:38:37;;;;;;;5.80;1.70;;;23.90;65.40;;;;;;5069915;28;20387;-83
2022/12/10 00:41:05;;;;;;;5.43;2.03;;;23.60;66.30;;;;;;5070065;28;20401;-83
2022/12/10 00:43:32;;;;;;;6.32;1.60;;;23.30;67.80;;;;;;5069930;28;20873;-84
2022/12/10 00:45:59;;;;;;;3.88;1.55;;;23.40;67.40;;;;;;5070223;28;20787;-83
2022/12/10 00:48:26;;;;;;;4.22;1.70;;;23.50;67.80;;;;;;5069788;28;20391;-82
2022/12/10 00:51:10;;;;;;;6.53;1.80;;;23.50;67.10;;;;;;5069844;28;20367;-85
2022/12/10 00:53:39;;;;;;;6.32;1.80;;;23.40;66.80;;;;;;5070662;28;20423;-85
2022/12/10 00:56:07;;;;;;;7.03;1.90;;;23.10;66.80;;;;;;5070299;28;20952;-85
2022/12/10 00:58:36;;;;;;;4.80;1.80;;;23.10;67.80;;;;;;5069958;28;20381;-84
2022/12/10 01:01:11;;;;;;;5.53;1.92;;;23.30;67.10;;;;;;5069568;28;20947;-83
2022/12/10 01:03:39;;;;;;;6.17;1.80;;;23.40;67.20;;;;;;5069269;28;20382;-79
2022/12/10 01:06:18;;;;;;;5.53;1.80;;;23.10;67.40;;;;;;5069458;28;20523;-84
2022/12/10 01:08:46;;;;;;;6.60;2.00;;;22.90;68.70;;;;;;5069722;28;20367;-85
2022/12/10 01:11:16;;;;;;;4.93;1.80;;;23.10;68.70;;;;;;5069415;28;20426;-84
2022/12/10 01:13:44;;;;;;;4.90;1.80;;;23.30;68.10;;;;;;5069300;28;20501;-85
2022/12/10 01:16:13;;;;;;;5.65;2.08;;;23.40;68.10;;;;;;5068678;28;20398;-84
2022/12/10 01:18:41;;;;;;;5.38;1.90;;;23.50;67.40;;;;;;5069130;28;20378;-83
2022/12/10 01:21:11;;;;;;;5.93;1.90;;;23.50;66.80;;;;;;5069265;28;20712;-84
2022/12/10 01:23:40;;;;;;;7.22;1.70;;;23.50;67.20;;;;;;5069138;28;20803;-84
2022/12/10 01:26:11;;;;;;;7.03;1.80;;;23.60;67.40;;;;;;5069711;28;20463;-84
2022/12/10 01:28:39;;;;;;;8.23;1.95;;;24.00;66.30;;;;;;5070155;28;20448;-83
2022/12/10 01:31:09;;;;;;;5.85;1.80;;;24.40;65.10;;;;;;5069826;28;20393;-85
2022/12/10 01:33:37;;;;;;;5.43;1.80;;;24.70;64.80;;;;;;5069144;28;20402;-82
2022/12/10 01:36:15;;;;;;;5.15;1.70;;;25.60;62.90;;;;;;5068857;28;20722;-83
2022/12/10 01:38:42;;;;;;;5.25;1.58;;;26.30;61.30;;;;;;5069549;28;20427;-84
2022/12/10 01:41:16;;;;;;;5.90;1.73;;;26.40;62.10;;;;;;5068926;28;20404;-83
2022/12/10 01:43:59;;;;;;;4.45;1.70;;;26.90;62.10;;;;;;5068740;28;20387;-82
2022/12/10 01:46:38;;;;;;;5.22;2.00;;;27.60;58.90;;;;;;5068735;28;20412;-83
2022/12/10 01:49:11;;;;;;;5.63;1.98;;;27.70;58.50;;;;;;5069411;28;20830;-83
2022/12/10 01:51:40;;;;;;;7.28;2.10;;;27.50;57.10;;;;;;5068831;28;20857;-83
2022/12/10 01:54:13;;;;;;;5.85;1.80;;;27.60;57.40;;;;;;5068775;28;20869;-82
2022/12/10 01:56:45;;;;;;;6.38;2.10;;;27.40;57.80;;;;;;5069103;28;20377;-84
2022/12/10 01:59:13;;;;;;;4.60;2.05;;;27.50;58.80;;;;;;5068532;28;20390;-82
2022/12/10 02:02:05;;;;;;;7.05;2.60;;;28.00;58.70;;;;;;5069211;28;20381;-82
2022/12/10 02:04:37;;;;;;;4.88;2.10;;;28.80;57.20;;;;;;5068777;28;20374;-83
2022/12/10 02:07:33;;;;;;;4.53;1.60;;;29.00;57.00;;;;;;5069161;28;20358;-82
2022/12/10 02:10:09;;;;;;;7.15;1.90;;;29.00;55.50;;;;;;5050947;28;20389;-83
2022/12/10 02:13:02;;;;;;;5.38;1.60;;;28.50;55.30;;;;;;5068335;28;20483;-86
2022/12/10 02:15:33;;;;;;;5.80;2.00;;;28.10;55.20;;;;;;5050551;28;20454;-85
2022/12/10 02:18:14;;;;;;;5.63;1.77;;;27.60;56.00;;;;;;5066255;28;20443;-84
2022/12/10 02:20:56;;;;;;;5.72;1.70;;;27.00;57.00;;;;;;5068667;28;20360;-83
2022/12/10 02:23:36;;;;;;;5.15;1.73;;;26.50;58.30;;;;;;5068665;28;20410;-86
2022/12/10 02:26:06;;;;;;;5.70;1.52;;;26.10;59.00;;;;;;5068759;28;20385;-84
2022/12/10 02:28:45;;;;;;;4.65;1.73;;;25.70;59.50;;;;;;5069466;28;20427;-84
2022/12/10 02:31:16;;;;;;;6.32;1.85;;;25.30;59.50;;;;;;5072246;28;20374;-88
2022/12/10 02:33:48;;;;;;;6.60;1.90;;;25.10;60.40;;;;;;5072457;28;20925;-86
2022/12/10 02:36:18;;;;;;;4.93;1.60;;;25.00;60.60;;;;;;5054821;28;20381;-85
2022/12/10 02:38:47;;;;;;;6.85;1.50;;;24.90;62.40;;;;;;5072503;28;20412;-86
2022/12/10 02:41:23;;;;;;;4.43;1.50;;;24.90;63.00;;;;;;5072370;28;20378;-86
2022/12/10 02:43:53;;;;;;;5.82;1.80;;;24.70;62.80;;;;;;5071979;28;20461;-86
2022/12/10 02:46:21;;;;;;;5.93;1.63;;;24.30;63.90;;;;;;5072327;28;20358;-86
2022/12/10 02:48:49;;;;;;;4.97;1.60;;;24.20;64.60;;;;;;5072184;28;20965;-86
2022/12/10 02:51:16;;;;;;;6.22;1.77;;;24.30;64.80;;;;;;5072516;28;20461;-86
2022/12/10 02:53:45;;;;;;;3.42;1.38;;;24.70;64.80;;;;;;5072288;28;20795;-85
2022/12/10 02:56:21;;;;;;;7.60;1.85;;;25.10;64.00;;;;;;5072223;28;20374;-85
2022/12/10 02:59:14;;;;;;;6.55;1.60;;;25.40;62.70;;;;;;5072701;28;20370;-84
2022/12/10 03:01:56;;;;;;;7.85;1.67;;;25.50;61.50;;;;;;5072145;28;20378;-85
2022/12/10 03:04:26;;;;;;;8.88;1.80;;;25.40;61.80;;;;;;5071965;28;20385;-86
2022/12/10 03:07:03;;;;;;;6.60;1.70;;;25.50;61.70;;;;;;5071107;28;20780;-85
2022/12/10 03:09:44;;;;;;;5.43;1.50;;;25.30;61.30;;;;;;5071381;28;20370;-85
2022/12/10 03:12:35;;;;;;;4.97;1.65;;;25.20;61.70;;;;;;5071570;28;20470;-84
2022/12/10 03:15:07;;;;;;;5.65;1.40;;;25.20;62.10;;;;;;5072024;28;20365;-84
2022/12/10 03:17:36;;;;;;;5.32;1.80;;;25.50;61.70;;;;;;5071531;28;20382;-85
2022/12/10 03:20:08;;;;;;;5.07;1.65;;;26.70;61.80;;;;;;5053719;28;20719;-84
2022/12/10 03:22:38;;;;;;;4.05;1.60;;;27.50;59.30;;;;;;5072070;28;20370;-83
2022/12/10 03:25:07;;;;;;;5.57;1.65;;;27.70;58.20;;;;;;5071495;28;20397;-84
2022/12/10 03:27:35;;;;;;;5.22;1.60;;;27.60;57.70;;;;;;5071245;28;20375;-85
2022/12/10 03:30:02;;;;;;;5.50;1.80;;;27.40;58.50;;;;;;5071703;28;20374;-85
2022/12/10 03:32:31;;;;;;;7.20;1.83;;;27.30;58.10;;;;;;5071028;28;20611;-86
2022/12/10 03:35:00;;;;;;;6.95;1.77;;;27.50;57.70;;;;;;5071844;28;20453;-86
2022/12/10 03:37:29;;;;;;;4.97;1.60;;;27.80;58.30;;;;;;5071156;28;20900;-85
2022/12/10 03:39:58;;;;;;;6.28;1.70;;;28.20;58.00;;;;;;5070239;28;20374;-84
2022/12/10 03:42:25;;;;;;;5.43;1.80;;;28.40;56.70;;;;;;5071195;28;20370;-84
2022/12/10 03:44:52;;;;;;;5.90;1.73;;;28.20;57.40;;;;;;5070986;28;20954;-85
2022/12/10 03:47:20;;;;;;;5.40;2.03;;;29.30;56.40;;;;;;5070799;28;20885;-84
2022/12/10 03:49:48;;;;;;;5.93;1.80;;;30.90;55.60;;;;;;5053135;28;20405;-84
2022/12/10 03:52:15;;;;;;;5.97;1.75;;;31.30;52.80;;;;;;5070989;28;20780;-85
2022/12/10 03:54:43;;;;;;;6.30;1.77;;;30.20;53.30;;;;;;5070888;28;20453;-85
2022/12/10 03:57:10;;;;;;;5.82;1.80;;;28.90;55.00;;;;;;5052912;28;20377;-84
2022/12/10 03:59:38;;;;;;;5.18;1.63;;;28.20;56.60;;;;;;5070616;28;20474;-85
2022/12/10 04:02:05;;;;;;;5.53;1.80;;;28.90;57.70;;;;;;5071132;28;20377;-84
2022/12/10 04:04:32;;;;;;;6.35;1.60;;;29.80;55.00;;;;;;5070474;28;20424;-85
2022/12/10 04:06:59;;;;;;;4.28;1.55;;;29.80;54.80;;;;;;5070812;28;20381;-85
2022/12/10 04:09:27;;;;;;;5.57;1.70;;;29.80;55.30;;;;;;5070633;28;20385;-85
2022/12/10 04:12:01;;;;;;;7.38;1.98;;;29.50;54.30;;;;;;5052710;28;20386;-84
2022/12/10 04:17:14;;;;;;;4.22;1.52;;;29.50;55.70;;;;;;5071064;28;20366;-86
2022/12/10 04:19:42;;;;;;;6.80;1.70;;;30.50;53.50;;;;;;5070277;28;20375;-85
2022/12/10 04:27:54;;;;;;;5.28;1.90;;;29.90;54.20;;;;;;4989004;28;20370;-84
2022/12/10 04:30:21;;;;;;;4.88;1.90;;;30.30;53.40;;;;;;4988900;28;20438;-84
2022/12/10 04:32:48;;;;;;;5.07;1.88;;;31.10;52.30;;;;;;4988820;28;20881;-85
2022/12/10 04:35:15;;;;;;;4.40;2.10;;;31.50;50.90;;;;;;4988898;28;20816;-85
2022/12/10 04:37:43;;;;;;;6.95;2.00;;;31.10;51.10;;;;;;4972727;28;20912;-85
2022/12/10 04:40:11;;;;;;;6.00;2.25;;;31.20;50.70;;;;;;4988832;28;20489;-84
2022/12/10 04:42:38;;;;;;;4.50;1.85;;;30.50;52.20;;;;;;4973016;28;20761;-85
2022/12/10 04:45:06;;;;;;;6.10;2.20;;;31.10;52.30;;;;;;4988717;28;20902;-85
2022/12/10 04:47:36;;;;;;;4.72;1.90;;;32.00;50.20;;;;;;4988656;28;20400;-85
2022/12/10 04:50:03;;;;;;;4.75;2.03;;;32.20;49.90;;;;;;4988665;28;20784;-87
2022/12/10 04:52:31;;;;;;;5.38;1.63;;;32.90;48.60;;;;;;4987650;28;20452;-86
2022/12/10 04:54:58;;;;;;;5.15;1.90;;;32.70;50.00;;;;;;4988447;28;20474;-86
2022/12/10 04:57:25;;;;;;;6.10;1.73;;;32.80;49.90;;;;;;4988424;28;20484;-87
2022/12/10 04:59:52;;;;;;;7.30;1.70;;;32.70;50.30;;;;;;4988183;28;20400;-87
2022/12/10 05:02:19;;;;;;;4.35;1.63;;;32.40;50.20;;;;;;4990888;28;20400;-86
2022/12/10 05:04:48;;;;;;;4.50;1.60;;;32.70;49.70;;;;;;5069485;28;20366;-87
2022/12/10 05:07:15;;;;;;;6.15;1.50;;;33.10;49.30;;;;;;5069657;28;20370;-88
2022/12/10 05:09:42;;;;;;;3.47;1.50;;;33.10;49.40;;;;;;5069661;28;20380;-87
2022/12/10 05:12:10;;;;;;;5.60;1.85;;;32.40;49.40;;;;;;5051654;28;20876;-85
2022/12/10 05:14:37;;;;;;;6.97;1.75;;;31.20;50.40;;;;;;5069456;28;20370;-89
2022/12/10 05:17:04;;;;;;;6.00;1.70;;;29.70;52.10;;;;;;5069261;28;20432;-87
2022/12/10 05:19:31;;;;;;;4.72;1.70;;;28.80;53.50;;;;;;5069027;28;20409;-87
2022/12/10 05:24:44;;;;;;;6.07;1.73;;;27.50;56.00;;;;;;5069433;28;20710;-86
2022/12/10 05:27:11;;;;;;;4.90;2.00;;;27.20;56.80;;;;;;5069199;28;20378;-86
2022/12/10 05:29:38;;;;;;;6.18;1.80;;;27.10;57.90;;;;;;5069474;28;20374;-86
2022/12/10 05:32:05;;;;;;;4.30;1.50;;;27.50;57.20;;;;;;5069239;28;20443;-85
2022/12/10 05:34:33;;;;;;;4.82;1.60;;;27.40;57.10;;;;;;5069072;28;20451;-85
2022/12/10 05:37:00;;;;;;;6.50;1.80;;;27.80;56.70;;;;;;5069085;28;20393;-86
2022/12/10 05:39:27;;;;;;;3.15;1.40;;;28.30;56.80;;;;;;5068980;28;20447;-86
2022/12/10 05:41:54;;;;;;;6.47;1.63;;;29.20;54.90;;;;;;5068954;28;20444;-84
2022/12/10 05:44:21;;;;;;;4.25;1.35;;;30.10;54.00;;;;;;5069061;28;20386;-85
2022/12/10 05:46:48;;;;;;;5.07;1.40;;;30.30;52.10;;;;;;5068786;28;20370;-84
2022/12/10 05:49:16;;;;;;;4.10;1.42;;;30.30;53.10;;;;;;5068698;28;20374;-85
2022/12/10 05:51:43;;;;;;;4.95;1.50;;;29.60;53.40;;;;;;5068803;28;20488;-85
2022/12/10 05:54:10;;;;;;;4.25;1.30;;;28.60;55.50;;;;;;5068636;28;20474;-85
2022/12/10 05:56:38;;;;;;;4.53;1.50;;;27.90;56.80;;;;;;5068775;28;20385;-85
2022/12/10 05:59:06;;;;;;;3.65;1.50;;;27.30;57.80;;;;;;5068312;28;20389;-84
2022/12/10 06:01:34;;;;;;;5.28;1.30;;;26.80;58.70;;;;;;5068606;28;20462;-85
2022/12/10 06:04:03;;;;;;;4.93;1.50;;;26.40;59.60;;;;;;5068510;28;20486;-85
2022/12/10 06:06:33;;;;;;;6.93;1.40;;;26.10;60.30;;;;;;5069061;28;20875;-84
2022/12/10 06:09:01;;;;;;;5.72;1.60;;;25.70;61.40;;;;;;5068731;28;20370;-86
2022/12/10 06:11:29;;;;;;;5.60;1.45;;;25.70;61.80;;;;;;5068556;28;20397;-87
2022/12/10 06:13:58;;;;;;;3.80;1.27;;;26.30;61.90;;;;;;5068304;28;20398;-84
2022/12/10 06:16:27;;;;;;;3.97;1.30;;;26.80;60.20;;;;;;5050638;28;20384;-86
2022/12/10 06:18:55;;;;;;;5.97;1.55;;;26.50;60.10;;;;;;5050750;28;20755;-85
2022/12/10 06:21:22;;;;;;;4.15;1.50;;;26.40;60.70;;;;;;5068259;28;20366;-85
2022/12/10 06:23:53;;;;;;;5.72;1.50;;;26.30;60.80;;;;;;5068180;28;20872;-86
2022/12/10 06:26:25;;;;;;;6.53;1.50;;;25.90;61.30;;;;;;5068289;28;20373;-85
2022/12/10 06:28:54;;;;;;;5.03;1.40;;;25.60;61.80;;;;;;5068028;28;20385;-83
2022/12/10 06:31:21;;;;;;;4.60;1.30;;;25.80;62.20;;;;;;5068625;28;20370;-86
2022/12/10 06:33:48;;;;;;;6.25;1.50;;;26.00;61.70;;;;;;5050248;28;20398;-82
2022/12/10 06:36:17;;;;;;;5.88;1.60;;;26.20;60.80;;;;;;5068918;28;20370;-83
2022/12/10 06:38:46;;;;;;;4.55;1.50;;;26.30;60.80;;;;;;5068071;28;20362;-85
2022/12/10 06:41:15;;;;;;;4.43;1.52;;;26.00;61.10;;;;;;5068268;28;20369;-83
2022/12/10 06:43:42;;;;;;;4.60;1.48;;;25.70;61.70;;;;;;5068227;28;20879;-86
2022/12/10 06:46:12;;;;;;;4.20;1.30;;;25.60;62.10;;;;;;5068491;28;20411;-83
2022/12/10 06:48:39;;;;;;;2.97;1.13;;;25.30;62.40;;;;;;5068563;28;20800;-88
2022/12/10 06:51:08;;;;;;;5.05;1.50;;;25.00;63.40;;;;;;5068574;28;20431;-89
2022/12/10 06:53:37;;;;;;;5.03;1.55;;;25.00;63.50;;;;;;5069107;28;20397;-88
2022/12/10 06:56:06;;;;;;;5.13;1.23;;;25.20;63.50;;;;;;5071057;28;20399;-83
2022/12/10 06:58:35;;;;;;;3.90;1.30;;;25.40;62.90;;;;;;5068286;28;20378;-86
2022/12/10 07:01:10;;;;;;;3.78;1.45;;;25.10;62.90;;;;;;5067984;28;20455;-86
2022/12/10 07:03:37;;;;;;;5.40;1.50;;;24.90;63.80;;;;;;5068294;28;20411;-81
2022/12/10 07:06:06;;;;;;;4.18;1.30;;;24.60;64.10;;;;;;5068438;28;20370;-86
2022/12/10 07:08:33;;;;;;;6.15;1.60;;;24.30;64.50;;;;;;5068741;28;20401;-85
2022/12/10 07:11:05;;;;;;;4.03;1.50;;;23.90;65.50;;;;;;5049952;28;20793;-87
2022/12/10 07:13:32;;;;;;;5.00;1.98;;;23.70;67.00;;;;;;5068635;28;20409;-86
2022/12/10 07:15:59;;;;;;;5.22;1.80;;;23.50;67.50;;;;;;5071122;28;20393;-86
2022/12/10 07:18:27;;;;;;;8.45;1.60;;;23.30;68.00;;;;;;5071752;28;20456;-87
2022/12/10 07:20:54;;;;;;;5.15;2.00;;;23.20;68.10;;;;;;5071647;28;20362;-88
2022/12/10 07:23:22;;;;;;;5.03;1.70;;;23.10;68.60;;;;;;5071606;28;20854;-87
2022/12/10 07:25:49;;;;;;;4.65;1.50;;;23.20;69.30;;;;;;5071403;28;20367;-86
2022/12/10 07:28:16;;;;;;;4.95;1.58;;;23.00;69.10;;;;;;5071957;28;20387;-86
2022/12/10 07:30:43;;;;;;;4.32;1.50;;;22.90;69.30;;;;;;5071765;28;20454;-86
2022/12/10 07:33:10;;;;;;;5.25;1.30;;;22.70;69.50;;;;;;5071475;28;20481;-88
2022/12/10 07:35:40;;;;;;;5.10;1.50;;;22.50;70.30;;;;;;5071156;28;20399;-82
2022/12/10 07:38:08;;;;;;;6.72;1.67;;;22.50;70.70;;;;;;5071110;28;20527;-82
2022/12/10 07:40:35;;;;;;;5.33;1.90;;;22.40;70.90;;;;;;5071136;28;20378;-87
2022/12/10 07:43:02;;;;;;;6.97;2.27;;;22.30;71.30;;;;;;5070898;28;20868;-86
2022/12/10 07:45:29;;;;;;;4.82;1.60;;;22.30;71.50;;;;;;5071027;28;20850;-87
2022/12/10 07:47:56;;;;;;;4.95;1.40;;;22.20;71.60;;;;;;5071217;28;20386;-89
2022/12/10 07:50:23;;;;;;;6.82;1.70;;;22.00;72.00;;;;;;5071264;28;20861;-84
2022/12/10 07:52:51;;;;;;;5.63;1.20;;;21.90;72.50;;;;;;5070814;28;20406;-87
2022/12/10 07:55:18;;;;;;;7.05;1.67;;;21.80;72.70;;;;;;5052621;28;20417;-87
2022/12/10 07:57:45;;;;;;;6.47;1.65;;;21.90;72.90;;;;;;5070592;28;20409;-85
2022/12/10 08:00:13;;;;;;;4.75;1.67;;;21.90;73.10;;;;;;5070796;28;20479;-88
2022/12/10 08:02:40;;;;;;;6.47;1.58;;;21.80;73.50;;;;;;5070919;28;20877;-82
2022/12/10 08:05:07;;;;;;;5.80;1.50;;;21.80;73.10;;;;;;5070708;28;20861;-86
2022/12/10 08:07:34;;;;;;;5.10;1.67;;;21.70;73.60;;;;;;5070570;28;20378;-85
2022/12/10 08:10:01;;;;;;;7.30;1.80;;;21.80;73.70;;;;;;5070645;28;20370;-85
2022/12/10 08:12:28;;;;;;;4.63;1.67;;;21.80;73.60;;;;;;5070598;28;20390;-86
2022/12/10 08:14:55;;;;;;;5.60;1.70;;;21.70;73.50;;;;;;5070660;28;20386;-86
2022/12/10 08:17:22;;;;;;;5.60;1.60;;;21.60;73.90;;;;;;5065359;28;20377;-86
2022/12/10 08:19:50;;;;;;;10.45;1.70;;;21.50;74.00;;;;;;5070378;28;20967;-85
2022/12/10 08:22:18;;;;;;;4.47;1.45;;;21.40;74.60;;;;;;5070631;28;20536;-85
2022/12/10 08:24:45;;;;;;;8.55;1.70;;;21.40;74.90;;;;;;5070572;28;20374;-81
2022/12/10 08:27:12;;;;;;;6.07;1.55;;;21.20;75.50;;;;;;5070364;28;20377;-83
2022/12/10 08:29:39;;;;;;;5.68;1.70;;;21.00;75.60;;;;;;5070261;28;20862;-84
2022/12/10 08:32:06;;;;;;;4.88;1.48;;;20.80;76.10;;;;;;5070095;28;20384;-87
2022/12/10 08:34:33;;;;;;;6.00;1.42;;;20.70;76.60;;;;;;5070163;28;20854;-88
2022/12/10 08:37:00;;;;;;;5.65;1.50;;;20.60;76.80;;;;;;5070079;28;20434;-80
2022/12/10 08:39:27;;;;;;;5.65;1.65;;;20.50;76.90;;;;;;5070025;28;20378;-88
2022/12/10 08:41:55;;;;;;;6.17;1.60;;;20.50;77.60;;;;;;5070149;28;20376;-83
2022/12/10 08:44:22;;;;;;;5.60;1.50;;;20.40;77.40;;;;;;5070164;28;20406;-87
2022/12/10 08:46:49;;;;;;;4.50;1.30;;;20.40;77.60;;;;;;5073063;28;20377;-86
2022/12/10 08:49:17;;;;;;;5.15;1.67;;;20.40;77.70;;;;;;5069902;28;20382;-87
2022/12/10 08:51:44;;;;;;;5.32;1.58;;;20.30;78.00;;;;;;5051960;28;20809;-89
2022/12/10 08:54:11;;;;;;;5.20;1.90;;;20.30;77.90;;;;;;5070349;28;20877;-84
2022/12/10 08:56:39;;;;;;;6.68;1.67;;;20.20;78.20;;;;;;5073242;28;20425;-85
2022/12/10 08:59:07;;;;;;;5.28;1.50;;;20.10;78.20;;;;;;5069936;28;20858;-88
2022/12/10 09:01:34;;;;;;;5.28;1.50;;;20.00;78.60;;;;;;5070046;28;20363;-86
2022/12/10 09:04:01;;;;;;;5.80;1.48;;;19.80;79.00;;;;;;5069847;28;20428;-85
2022/12/10 09:06:28;;;;;;;5.47;1.57;;;19.70;79.40;;;;;;5070112;28;20374;-87
2022/12/10 09:08:56;;;;;;;6.03;1.40;;;19.60;80.00;;;;;;5069640;28;20375;-88
2022/12/10 09:11:32;;;;;;;5.60;1.50;;;19.60;80.20;;;;;;5069937;28;20374;-87
2022/12/10 09:14:00;;;;;;;6.13;1.60;;;19.50;80.60;;;;;;5069702;28;20404;-87
2022/12/10 09:16:36;;;;;;;6.82;1.60;;;19.40;80.70;;;;;;5069556;28;20421;-87
2022/12/10 09:19:04;;;;;;;6.18;1.70;;;19.40;81.00;;;;;;5069587;28;20373;-86
2022/12/10 09:21:31;;;;;;;6.38;1.55;;;19.30;81.50;;;;;;5035005;28;20399;-89
2022/12/10 09:23:59;;;;;;;9.43;1.63;;;19.20;81.90;;;;;;5069226;28;20380;-87
2022/12/10 09:26:26;;;;;;;5.38;1.70;;;19.10;82.10;;;;;;5069205;28;20385;-85
2022/12/10 09:28:54;;;;;;;6.85;1.77;;;19.00;82.30;;;;;;5069210;28;20726;-86
2022/12/10 09:31:21;;;;;;;6.33;1.73;;;19.10;82.70;;;;;;5051076;28;20483;-86
2022/12/10 09:33:50;;;;;;;6.65;1.67;;;19.10;82.70;;;;;;5069172;28;20463;-88
2022/12/10 09:36:18;;;;;;;7.72;1.67;;;19.10;82.70;;;;;;5068932;28;20370;-88
2022/12/10 09:38:46;;;;;;;6.72;1.60;;;19.10;82.90;;;;;;5068642;28;20798;-88
2022/12/10 09:41:22;;;;;;;5.80;1.50;;;19.20;82.60;;;;;;5069096;28;20366;-85
2022/12/10 09:44:03;;;;;;;6.00;1.70;;;19.20;82.50;;;;;;5068734;28;20366;-84
2022/12/10 09:46:53;;;;;;;7.77;1.67;;;19.20;82.60;;;;;;5069296;28;20378;-82
2022/12/10 09:49:47;;;;;;;5.77;1.83;;;19.20;82.80;;;;;;5051491;28;20382;-85
2022/12/10 09:52:22;;;;;;;5.05;1.63;;;19.10;83.00;;;;;;5068796;28;20382;-84
2022/12/10 09:54:58;;;;;;;4.53;1.70;;;19.10;82.90;;;;;;5068619;28;20428;-84
2022/12/10 09:57:45;;;;;;;7.22;1.90;;;19.10;83.40;;;;;;5068629;28;20845;-84
2022/12/10 10:00:16;;;;;;;5.13;1.70;;;19.00;83.40;;;;;;5068762;28;20401;-84
2022/12/10 10:02:43;;;;;;;6.82;1.75;;;19.00;83.40;;;;;;5050658;28;20393;-84
2022/12/10 10:05:12;;;;;;;5.75;1.67;;;18.90;83.50;;;;;;5068433;28;20408;-87
2022/12/10 10:07:52;;;;;;;6.47;1.60;;;18.80;83.80;;;;;;5069239;28;20417;-84
2022/12/10 10:10:23;;;;;;;6.00;1.70;;;18.80;84.30;;;;;;5070662;28;20950;-84
2022/12/10 10:13:06;;;;;;;4.88;1.55;;;18.60;84.60;;;;;;5068595;28;20410;-84
2022/12/10 10:15:35;;;;;;;5.83;1.70;;;18.70;85.90;;;;;;5068729;28;20358;-87
2022/12/10 10:18:13;;;;;;;5.25;1.70;;;18.70;85.20;;;;;;5068343;28;20419;-88
2022/12/10 10:20:40;;;;;;;6.20;1.73;;;18.70;85.40;;;;;;5068365;28;20359;-86
2022/12/10 10:23:12;;;;;;;5.88;1.75;;;18.50;85.40;;;;;;5068504;28;20388;-85
2022/12/10 10:25:39;;;;;;;5.93;1.80;;;18.60;86.10;;;;;;5068450;28;20371;-87
2022/12/10 10:28:09;;;;;;;6.20;1.70;;;18.60;86.20;;;;;;5050325;28;20393;-88
2022/12/10 10:30:36;;;;;;;6.82;1.83;;;18.60;86.00;;;;;;5068452;28;20372;-87
2022/12/10 10:33:10;;;;;;;5.38;1.50;;;18.60;86.40;;;;;;5068206;28;20974;-85
2022/12/10 10:35:50;;;;;;;5.47;1.60;;;18.70;86.30;;;;;;5068471;28;20850;-84
2022/12/10 10:38:23;;;;;;;5.05;1.65;;;18.70;86.10;;;;;;5068649;28;20870;-84
2022/12/10 10:40:54;;;;;;;6.72;1.60;;;18.80;86.20;;;;;;5068171;28;20455;-85
2022/12/10 10:43:28;;;;;;;5.38;1.60;;;18.80;86.20;;;;;;5068509;28;20401;-86
2022/12/10 10:46:06;;;;;;;6.97;2.20;;;18.70;86.50;;;;;;5068610;28;20365;-86
2022/12/10 10:48:33;;;;;;;5.45;1.98;;;18.60;86.60;;;;;;5068274;28;20374;-85
2022/12/10 10:51:08;;;;;;;7.03;2.00;;;18.60;87.00;;;;;;5053709;28;20392;-87
2022/12/10 10:53:54;;;;;;;4.63;1.90;;;18.40;87.20;;;;;;5072031;28;20946;-83
2022/12/10 10:56:29;;;;;;;6.38;1.90;;;18.40;87.80;;;;;;5072742;28;20483;-88
2022/12/10 10:59:06;;;;;;;8.15;1.92;;;18.30;88.00;;;;;;5072030;28;20381;-83
2022/12/10 11:01:55;;;;;;;8.43;1.85;;;18.20;88.30;;;;;;5072474;28;20401;-85
2022/12/10 11:04:51;;;;;;;7.22;1.80;;;18.10;89.10;;;;;;5072064;28;20452;-84
2022/12/10 11:07:38;;;;;;;5.65;1.60;;;18.10;89.20;;;;;;4990741;28;20892;-84
2022/12/10 11:10:21;;;;;;;7.38;2.00;;;17.90;89.60;;;;;;4974284;28;20392;-85
2022/12/10 11:13:19;;;;;;;5.32;1.90;;;17.80;90.00;;;;;;4990900;28;20408;-85
2022/12/10 11:15:53;;;;;;;7.57;1.98;;;17.70;90.20;;;;;;4990387;28;20885;-88
2022/12/10 11:18:36;;;;;;;7.30;1.98;;;17.70;90.40;;;;;;4991131;28;20425;-85
2022/12/10 11:21:18;;;;;;;6.35;1.90;;;17.60;90.70;;;;;;4990511;28;20399;-88
2022/12/10 11:23:53;;;;;;;5.40;1.90;;;17.60;90.80;;;;;;4990523;28;20377;-86
2022/12/10 11:26:41;;;;;;;6.53;1.90;;;17.50;91.00;;;;;;4974028;28;20539;-88
2022/12/10 11:29:21;;;;;;;5.97;1.92;;;17.50;91.30;;;;;;4990858;28;20378;-87
2022/12/10 11:32:06;;;;;;;6.78;1.80;;;17.40;91.40;;;;;;4990534;28;20881;-85
2022/12/10 11:34:53;;;;;;;6.38;1.90;;;17.40;91.50;;;;;;4990117;28;20392;-86
2022/12/10 11:37:43;;;;;;;7.28;1.88;;;17.30;91.80;;;;;;4971298;28;20382;-85
2022/12/10 11:40:31;;;;;;;5.43;1.90;;;17.30;92.00;;;;;;4970912;28;20379;-85
2022/12/10 11:43:34;;;;;;;7.57;1.95;;;17.10;92.20;;;;;;4970936;28;20394;-83
2022/12/10 11:46:08;;;;;;;8.75;1.92;;;17.10;92.30;;;;;;5049155;28;20407;-87
2022/12/10 11:49:03;;;;;;;8.47;1.97;;;17.00;92.60;;;;;;5049683;28;20875;-85
2022/12/10 11:52:10;;;;;;;5.82;2.10;;;17.00;92.90;;;;;;5048762;28;20380;-83
2022/12/10 11:55:12;;;;;;;6.30;1.95;;;16.90;93.10;;;;;;4989917;28;20986;-85
2022/12/10 11:57:45;;;;;;;5.80;1.80;;;16.90;93.30;;;;;;4989595;28;20396;-84
2022/12/10 12:00:21;;;;;;;6.50;1.80;;;16.90;93.50;;;;;;4989036;28;20502;-87
2022/12/10 12:03:29;;;;;;;7.60;1.88;;;16.80;93.60;;;;;;4989374;28;20837;-87
2022/12/10 12:06:05;;;;;;;6.35;1.90;;;16.80;93.90;;;;;;4913278;29;20864;-83
2022/12/10 12:09:02;;;;;;;5.43;1.80;;;16.80;94.10;;;;;;4912838;29;20398;-85
2022/12/10 12:11:32;;;;;;;6.22;1.85;;;16.70;94.30;;;;;;4912634;29;20737;-83
2022/12/10 12:14:02;;;;;;;9.13;2.00;;;16.70;94.50;;;;;;4916288;29;20886;-87
2022/12/10 12:16:35;;;;;;;7.85;1.92;;;16.60;94.80;;;;;;4932141;29;20886;-84
2022/12/10 12:19:39;;;;;;;7.88;2.05;;;16.60;95.00;;;;;;4931697;29;20434;-87
2022/12/10 12:22:26;;;;;;;6.45;1.85;;;16.60;95.30;;;;;;4933090;29;20389;-86
2022/12/10 12:24:59;;;;;;;5.80;1.92;;;16.50;95.50;;;;;;4931574;29;20394;-87
2022/12/10 12:27:36;;;;;;;4.70;1.83;;;16.50;95.60;;;;;;4932399;29;20473;-85
2022/12/10 12:30:16;;;;;;;8.43;2.25;;;16.40;95.80;;;;;;4941413;29;20397;-85
2022/12/10 12:33:01;;;;;;;8.43;2.30;;;16.40;96.10;;;;;;4950724;29;20411;-86
2022/12/10 12:35:31;;;;;;;7.35;2.47;;;16.40;96.30;;;;;;4951353;29;20389;-84
2022/12/10 12:38:20;;;;;;;8.25;2.70;;;16.30;96.40;;;;;;4950629;29;20387;-84
2022/12/10 12:41:01;;;;;;;6.03;2.42;;;16.30;96.60;;;;;;4937770;29;20480;-84
2022/12/10 12:43:37;;;;;;;5.53;2.20;;;16.30;97.10;;;;;;5062131;28;20390;-83
2022/12/10 12:46:21;;;;;;;5.93;1.90;;;16.20;97.20;;;;;;5073662;28;20362;-83
2022/12/10 12:49:23;;;;;;;7.72;2.20;;;16.20;97.40;;;;;;5073019;28;20362;-83
2022/12/10 12:52:03;;;;;;;8.68;2.60;;;16.20;97.80;;;;;;5073312;28;20380;-87
2022/12/10 12:54:30;;;;;;;9.98;2.72;;;16.20;98.00;;;;;;5072231;28;20390;-85
2022/12/10 12:57:19;;;;;;;8.82;2.50;;;16.20;98.20;;;;;;5072378;28;20369;-84
2022/12/10 13:00:02;;;;;;;8.25;2.58;;;16.20;98.30;;;;;;5051163;28;20400;-82
2022/12/10 13:02:59;;;;;;;7.60;2.55;;;16.20;98.40;;;;;;5053955;28;20396;-82
2022/12/10 13:05:32;;;;;;;6.20;2.35;;;16.10;98.60;;;;;;5050209;28;20438;-81
2022/12/10 13:08:29;;;;;;;7.93;2.47;;;16.10;98.80;;;;;;5050617;28;20363;-84
2022/12/10 13:11:12;;;;;;;9.43;2.65;;;16.00;99.10;;;;;;5051694;28;20902;-82
2022/12/10 13:14:01;;;;;;;7.63;2.58;;;16.00;99.30;;;;;;5052339;28;20471;-83
2022/12/10 13:16:41;;;;;;;8.77;2.50;;;16.00;99.60;;;;;;5049596;28;20364;-83
2022/12/10 13:19:19;;;;;;;7.97;2.58;;;15.90;99.80;;;;;;5049658;28;20383;-83
2022/12/10 13:21:54;;;;;;;7.93;2.40;;;15.90;99.90;;;;;;5049665;28;20376;-83
2022/12/10 13:24:39;;;;;;;9.43;2.63;;;15.90;99.90;;;;;;5049181;28;20430;-83
2022/12/10 13:27:19;;;;;;;7.40;2.83;;;15.90;99.90;;;;;;5049460;28;20387;-85